»·PEaware :: N815M KSNA-KVNY

N815M :: KSNA-KVNY

FLIGHT INFORMATION

Flight Status: Arrived
Operator: Privately registered:
United States
More flights under this callsign
Pilot: Robert C. (30425)
Aircraft: BEECH AIRCRAFT DEBONAIR BONANZA
(BE33)
More flights by this aircraft type
Origin: KSNA John Wayne-Orange Co
United States
Destination: KVNY Van Nuys
United States
More flights between these airports :: More routes between these airports
Route: SLI V23 POPPER SMO125R SMO SMO317R CANOG
File this flight plan on PilotEdge
Remarks: TEC ROUTE CSTP3
Altitude:
(Current/Filed)
4,000ft
Speed:
(Current/Filed)
120kts
Departed: 18-Oct-20 08:08 PM
Arrived: 18-Oct-20 08:37 PM
Distance/Time
Traveled:
44nm/0:29
Distance/Time
To Go:
Arrived

Flight Plot

Page will automatically refresh every two minutes.

Flight plan parsing failed; only flown route is shown


Map Options




Map Legend


Flown Route
Filed Route
Departure Airport
Arrival Airport
Navaid (VOR, NDB)
Fix

Horizontal Profiles

Position Reports

Time Latitude Longitude Heading Altitude Ground
Speed
18-Oct-20 19:53 33.674454 -117.871929 217 60ft 0kts
18-Oct-20 19:54 33.674454 -117.871929 217 60ft 0kts
18-Oct-20 19:55 33.674454 -117.871929 217 60ft 0kts
18-Oct-20 19:56 33.674454 -117.871929 217 60ft 0kts
18-Oct-20 19:57 33.674454 -117.871929 217 60ft 0kts
18-Oct-20 19:58 33.674454 -117.871929 217 60ft 0kts
18-Oct-20 19:59 33.674454 -117.871929 217 60ft 0kts
18-Oct-20 20:00 33.674454 -117.871929 217 60ft 0kts
18-Oct-20 20:01 33.674454 -117.871929 217 60ft 0kts
18-Oct-20 20:02 33.674424 -117.871142 56 60ft 10kts
18-Oct-20 20:03 33.678933 -117.868277 27 60ft 24kts
18-Oct-20 20:04 33.681228 -117.866501 113 60ft 0kts
18-Oct-20 20:05 33.681228 -117.866501 113 60ft 0kts
18-Oct-20 20:06 33.680573 -117.865745 200 60ft 9kts
18-Oct-20 20:07 33.663417 -117.876786 211 339ft 121kts
18-Oct-20 20:08 33.637931 -117.912619 232 881ft 143kts
18-Oct-20 20:09 33.614579 -117.948918 232 1845ft 136kts
18-Oct-20 20:10 33.612369 -117.991299 280 2747ft 135kts
18-Oct-20 20:11 33.619808 -118.034987 280 3643ft 131kts
18-Oct-20 20:12 33.634166 -118.077094 308 4005ft 152kts
18-Oct-20 20:13 33.663564 -118.114314 315 4002ft 152kts
18-Oct-20 20:14 33.693339 -118.146292 318 4005ft 137kts
18-Oct-20 20:15 33.722284 -118.175502 319 4000ft 135kts
18-Oct-20 20:16 33.751446 -118.204179 319 3996ft 135kts
18-Oct-20 20:17 33.780583 -118.232566 319 3995ft 135kts
18-Oct-20 20:18 33.809855 -118.260965 319 3996ft 135kts
18-Oct-20 20:19 33.839742 -118.289914 319 3997ft 135kts
18-Oct-20 20:20 33.870383 -118.316588 318 3999ft 135kts
18-Oct-20 20:21 33.899463 -118.345423 318 3999ft 135kts
18-Oct-20 20:22 33.929391 -118.375482 318 4000ft 134kts
18-Oct-20 20:23 33.958681 -118.404976 320 3997ft 134kts
18-Oct-20 20:24 33.988153 -118.434617 320 3996ft 134kts
18-Oct-20 20:25 34.017992 -118.461528 331 3996ft 134kts
18-Oct-20 20:26 34.050933 -118.482977 333 3996ft 134kts
18-Oct-20 20:27 34.084068 -118.504300 333 3996ft 135kts
18-Oct-20 20:28 34.117340 -118.525738 333 3997ft 135kts
18-Oct-20 20:29 34.151151 -118.546263 344 3997ft 135kts
18-Oct-20 20:30 34.187600 -118.553575 9 3992ft 134kts
18-Oct-20 20:31 34.203169 -118.518349 92 3384ft 126kts
18-Oct-20 20:32 34.205916 -118.478555 41 2367ft 115kts
18-Oct-20 20:33 34.237602 -118.479055 353 1602ft 112kts
18-Oct-20 20:34 34.236180 -118.497390 147 1054ft 88kts
18-Oct-20 20:35 34.212773 -118.490651 174 820ft 73kts
18-Oct-20 20:36 34.204218 -118.490871 277 806ft 0kts
18-Oct-20 20:37 34.204218 -118.490871 277 806ft 0kts
18-Oct-20 20:38 34.204717 -118.491640 267 806ft 0kts
18-Oct-20 20:39 34.204717 -118.491640 267 806ft 0kts
18-Oct-20 20:40 34.204717 -118.491640 267 806ft 0kts
18-Oct-20 20:41 34.204717 -118.491640 267 806ft 0kts
18-Oct-20 20:42 34.204717 -118.491640 267 806ft 0kts
18-Oct-20 20:43 34.204717 -118.491640 267 806ft 0kts
18-Oct-20 20:44 34.204717 -118.491640 267 806ft 0kts
18-Oct-20 20:45 34.204717 -118.491640 267 806ft 0kts
18-Oct-20 20:46 34.204717 -118.491640 267 806ft 0kts

Navigation Log

Ident Type
Flight plan parsing failed, navigation log unavailable